createdAt,value
2023-04-26T00:01:07.401Z,99965.63
2023-04-26T00:03:34.149Z,99966.63
2023-04-26T00:06:03.714Z,99969.44
2023-04-26T00:08:30.033Z,99965.19
2023-04-26T00:10:56.432Z,99970.34
2023-04-26T00:13:22.777Z,99963.41
2023-04-26T00:15:49.107Z,99965.44
2023-04-26T00:18:15.510Z,99967.03
2023-04-26T00:20:42.025Z,99970.63
2023-04-26T00:23:10.499Z,99968.03
2023-04-26T00:25:37.325Z,99965.53
2023-04-26T00:28:03.707Z,99960.47
2023-04-26T00:30:30.109Z,99960.41
2023-04-26T00:32:56.526Z,99963.06
2023-04-26T00:35:22.965Z,99958.78
2023-04-26T00:37:49.339Z,99960.50
2023-04-26T00:40:17.186Z,99958.78
2023-04-26T00:42:43.584Z,99966.53
2023-04-26T00:45:10.059Z,99963.91
2023-04-26T00:47:36.506Z,99961.34
2023-04-26T00:50:03.643Z,99965.69
2023-04-26T00:52:30.622Z,99957.81
2023-04-26T00:54:57.094Z,99959.56
2023-04-26T00:57:23.489Z,99962.13
2023-04-26T00:59:49.905Z,99950.00
2023-04-26T01:02:17.606Z,99950.78
2023-04-26T01:04:45.308Z,99969.00
2023-04-26T01:07:11.951Z,99964.63
2023-04-26T01:09:38.346Z,99969.72
2023-04-26T01:12:05.004Z,99972.31
2023-04-26T01:14:31.366Z,99970.53
2023-04-26T01:16:57.867Z,99968.72
2023-04-26T01:19:25.546Z,99966.03
2023-04-26T01:21:51.938Z,99966.03
2023-04-26T01:24:18.322Z,99965.97
2023-04-26T01:26:47.749Z,99967.69
2023-04-26T01:29:14.730Z,99966.84
2023-04-26T01:31:41.199Z,99956.44
2023-04-26T01:34:07.551Z,99956.41
2023-04-26T01:36:33.956Z,99957.19
2023-04-26T01:39:00.498Z,99957.19
2023-04-26T01:41:27.034Z,99958.13
2023-04-26T01:43:53.595Z,99965.84
2023-04-26T01:46:20.331Z,99968.53
2023-04-26T01:48:47.254Z,99958.91
2023-04-26T01:51:13.773Z,99961.53
2023-04-26T01:53:40.256Z,99958.19
2023-04-26T01:56:06.783Z,99956.44
2023-04-26T01:58:33.164Z,99955.59
2023-04-26T02:01:06.214Z,99961.69
2023-04-26T02:03:32.614Z,99962.38
2023-04-26T02:05:59.044Z,99964.13
2023-04-26T02:08:25.428Z,99955.56
2023-04-26T02:10:51.752Z,99957.19
2023-04-26T02:13:19.396Z,99952.06
2023-04-26T02:15:49.219Z,99952.16
2023-04-26T02:18:15.829Z,99949.66
2023-04-26T02:20:45.753Z,99950.31
2023-04-26T02:23:12.512Z,99951.25
2023-04-26T02:25:38.887Z,99951.22
2023-04-26T02:28:05.875Z,99952.97
2023-04-26T02:30:32.324Z,99950.50
2023-04-26T02:32:59.005Z,99955.75
2023-04-26T02:35:25.439Z,99956.59
2023-04-26T02:37:52.366Z,99953.91
2023-04-26T02:40:19.113Z,99956.47
2023-04-26T02:42:45.525Z,99959.09
2023-04-26T02:45:12.180Z,99953.00
2023-04-26T02:47:38.788Z,99956.44
2023-04-26T02:50:09.058Z,99953.09
2023-04-26T02:52:36.111Z,99960.91
2023-04-26T02:55:05.733Z,99948.75
2023-04-26T02:57:32.314Z,99943.44
2023-04-26T02:59:58.967Z,99948.75
2023-04-26T03:02:25.707Z,99955.63
2023-04-26T03:04:52.254Z,99945.38
2023-04-26T03:07:18.627Z,99953.97
2023-04-26T03:09:44.943Z,99954.00
2023-04-26T03:12:11.778Z,99956.66
2023-04-26T03:14:38.175Z,99953.97
2023-04-26T03:17:04.527Z,99958.28
2023-04-26T03:19:30.871Z,99963.56
2023-04-26T03:21:57.341Z,99953.91
2023-04-26T03:24:23.877Z,99952.16
2023-04-26T03:26:52.580Z,99957.34
2023-04-26T03:29:19.785Z,99957.50
2023-04-26T03:31:46.195Z,99968.81
2023-04-26T03:34:12.651Z,99967.03
2023-04-26T03:36:39.054Z,99962.72
2023-04-26T03:39:06.240Z,99971.31
2023-04-26T03:41:33.557Z,99960.94
2023-04-26T03:44:00.016Z,99972.31
2023-04-26T03:46:26.537Z,99974.94
2023-04-26T03:48:53.226Z,99974.81
2023-04-26T03:51:19.828Z,99974.84
2023-04-26T03:53:48.621Z,99973.28
2023-04-26T03:56:14.952Z,99975.00
2023-04-26T03:58:42.154Z,99980.97
2023-04-26T04:01:08.764Z,99980.13
2023-04-26T04:03:35.830Z,99982.69
2023-04-26T04:06:03.805Z,99986.22
2023-04-26T04:08:30.582Z,99980.13
2023-04-26T04:10:56.990Z,99984.47
2023-04-26T04:13:23.353Z,99991.41
2023-04-26T04:15:49.766Z,99986.22
2023-04-26T04:18:16.202Z,99984.47
2023-04-26T04:20:42.595Z,99984.56
2023-04-26T04:23:09.881Z,99996.91
2023-04-26T04:25:36.642Z,99996.84
2023-04-26T04:28:03.448Z,99989.88
2023-04-26T04:30:30.642Z,99994.28
2023-04-26T04:33:00.880Z,99992.59
2023-04-26T04:35:29.182Z,99984.72
2023-04-26T04:37:58.550Z,99997.75
2023-04-26T04:40:25.557Z,99990.69
2023-04-26T04:42:53.567Z,99991.47
2023-04-26T04:45:54.182Z,99992.38
2023-04-26T04:48:21.352Z,99999.38
2023-04-26T04:50:47.902Z,100000.06
2023-04-26T04:53:14.363Z,100002.66
2023-04-26T04:55:41.122Z,100013.91
2023-04-26T04:58:07.496Z,99999.19
2023-04-26T05:00:34.212Z,100006.00
2023-04-26T05:03:00.854Z,100006.00
2023-04-26T05:05:27.517Z,100006.00
2023-04-26T05:07:53.868Z,100007.63
2023-04-26T05:10:20.253Z,100013.69
2023-04-26T05:12:46.599Z,100014.63
2023-04-26T05:15:12.969Z,100019.88
2023-04-26T05:17:39.396Z,100019.69
2023-04-26T05:20:07.923Z,100024.84
2023-04-26T05:22:36.899Z,100021.66
2023-04-26T05:25:04.601Z,100023.38
2023-04-26T05:27:31.076Z,100032.19
2023-04-26T05:29:57.469Z,100030.28
2023-04-26T05:32:23.836Z,100024.06
2023-04-26T05:34:50.166Z,100024.06
2023-04-26T05:37:17.197Z,100019.72
2023-04-26T05:39:44.287Z,100009.22
2023-04-26T05:42:10.709Z,100016.72
2023-04-26T05:44:37.080Z,100013.25
2023-04-26T05:47:03.636Z,100009.63
2023-04-26T05:49:29.947Z,100019.97
2023-04-26T05:51:58.798Z,100026.66
2023-04-26T05:54:25.180Z,100028.13
2023-04-26T05:56:51.533Z,100033.84
2023-04-26T05:59:17.932Z,100011.69
2023-04-26T06:01:44.379Z,100023.19
2023-04-26T06:04:11.110Z,100031.38
2023-04-26T06:06:38.027Z,100028.53
2023-04-26T06:09:04.712Z,100033.06
2023-04-26T06:11:31.432Z,100029.56
2023-04-26T06:13:57.777Z,100030.94
2023-04-26T06:16:24.306Z,100027.34
2023-04-26T06:18:50.940Z,100039.41
2023-04-26T06:21:17.256Z,100037.81
2023-04-26T06:23:43.643Z,100042.22
2023-04-26T06:26:09.991Z,100036.94
2023-04-26T06:28:36.438Z,100035.09
2023-04-26T06:31:02.879Z,100032.19
2023-04-26T06:33:29.245Z,100038.00
2023-04-26T06:35:55.605Z,100039.44
2023-04-26T06:38:21.978Z,100026.13
2023-04-26T06:40:48.359Z,100026.22
2023-04-26T06:43:14.715Z,100028.84
2023-04-26T06:45:42.191Z,100027.25
2023-04-26T06:48:09.992Z,100032.47
2023-04-26T06:50:40.043Z,100031.09
2023-04-26T06:53:07.013Z,100038.00
2023-04-26T06:55:33.862Z,100040.31
2023-04-26T06:58:00.383Z,100029.72
2023-04-26T07:00:26.816Z,100031.03
2023-04-26T07:02:53.267Z,100047.03
2023-04-26T07:05:19.753Z,100050.25
2023-04-26T07:07:46.199Z,100041.84
2023-04-26T07:10:13.033Z,100047.47
2023-04-26T07:12:39.498Z,100046.78
2023-04-26T07:15:09.525Z,100051.50
2023-04-26T07:17:36.234Z,100033.50
2023-04-26T07:20:02.964Z,100049.16
2023-04-26T07:22:29.413Z,100048.66
2023-04-26T07:24:55.873Z,100046.09
2023-04-26T07:27:22.246Z,100064.56
2023-04-26T07:29:48.925Z,100050.75
2023-04-26T07:32:15.410Z,100052.50
2023-04-26T07:34:41.960Z,100052.72
2023-04-26T07:37:08.367Z,100042.50
2023-04-26T07:39:35.204Z,100061.13
2023-04-26T07:42:01.656Z,100055.00
2023-04-26T07:44:28.184Z,100057.44
2023-04-26T07:46:54.591Z,100048.91
2023-04-26T07:49:20.989Z,100058.50
2023-04-26T07:51:48.894Z,100060.06
2023-04-26T07:54:15.260Z,100064.78
2023-04-26T07:56:41.678Z,100046.41
2023-04-26T07:59:08.488Z,100061.44
2023-04-26T08:01:34.835Z,100066.63
2023-04-26T08:04:01.978Z,100067.66
2023-04-26T08:06:29.371Z,100060.69
2023-04-26T08:08:56.301Z,100070.91
2023-04-26T08:11:22.874Z,100073.00
2023-04-26T08:13:49.350Z,100055.28
2023-04-26T08:16:15.959Z,100074.03
2023-04-26T08:18:44.084Z,100075.34
2023-04-26T08:21:12.670Z,100075.16
2023-04-26T08:23:39.215Z,100071.16
2023-04-26T08:26:06.749Z,100071.28
2023-04-26T08:28:33.305Z,100077.88
2023-04-26T08:30:59.722Z,100083.81
2023-04-26T08:33:26.327Z,100076.03
2023-04-26T08:35:52.832Z,100072.31
2023-04-26T08:38:19.258Z,100079.81
2023-04-26T08:40:46.074Z,100089.59
2023-04-26T08:43:12.573Z,100083.25
2023-04-26T08:45:39.673Z,100081.09
2023-04-26T08:48:07.258Z,100091.13
2023-04-26T08:50:33.794Z,100083.66
2023-04-26T08:53:00.201Z,100084.97
2023-04-26T08:55:26.692Z,100088.06
2023-04-26T08:57:53.057Z,100093.09
2023-04-26T09:00:19.770Z,100086.59
2023-04-26T09:02:47.396Z,100092.63
2023-04-26T09:05:14.367Z,100094.16
2023-04-26T09:07:47.534Z,100104.88
2023-04-26T09:10:14.648Z,100110.25
2023-04-26T09:12:41.255Z,100106.91
2023-04-26T09:15:07.936Z,100111.00
2023-04-26T09:17:36.670Z,100107.28
2023-04-26T09:20:17.674Z,100113.75
2023-04-26T09:22:44.064Z,100119.25
2023-04-26T09:25:11.286Z,100113.75
2023-04-26T09:27:39.111Z,100113.00
2023-04-26T09:30:07.707Z,100119.50
2023-04-26T09:32:51.203Z,100118.84
2023-04-26T09:35:28.082Z,100124.38
2023-04-26T09:38:00.324Z,100138.28
2023-04-26T09:40:29.573Z,100129.91
2023-04-26T09:42:59.051Z,100131.09
2023-04-26T09:45:26.258Z,100135.72
2023-04-26T09:47:52.763Z,100139.59
2023-04-26T09:50:26.074Z,100145.59
2023-04-26T09:52:52.448Z,100141.78
2023-04-26T09:55:34.993Z,100138.22
2023-04-26T09:58:11.414Z,100140.16
2023-04-26T10:00:38.536Z,100141.31
2023-04-26T10:03:05.807Z,100155.13
2023-04-26T10:05:34.003Z,100132.31
2023-04-26T10:08:00.713Z,100142.34
2023-04-26T10:10:27.235Z,100153.78
2023-04-26T10:12:53.557Z,100166.06
2023-04-26T10:15:19.977Z,100166.59
2023-04-26T10:17:46.458Z,100155.69
2023-04-26T10:20:13.386Z,100178.41
2023-04-26T10:22:41.137Z,100167.56
2023-04-26T10:25:09.063Z,100172.59
2023-04-26T10:27:45.094Z,100160.06
2023-04-26T10:30:13.874Z,100170.94
2023-04-26T10:32:53.083Z,100174.47
2023-04-26T10:35:20.085Z,100171.91
2023-04-26T10:38:01.907Z,100166.03
2023-04-26T10:40:39.087Z,100173.28
2023-04-26T10:43:11.973Z,100187.28
2023-04-26T10:45:38.667Z,100179.63
2023-04-26T10:48:21.400Z,100187.84
2023-04-26T10:51:08.297Z,100187.72
2023-04-26T10:53:34.641Z,100193.81
2023-04-26T10:56:01.015Z,100192.69
2023-04-26T10:58:30.529Z,100208.50
2023-04-26T11:01:13.402Z,100196.47
2023-04-26T11:03:43.720Z,100205.16
2023-04-26T11:06:13.698Z,100206.13
2023-04-26T11:08:40.082Z,100209.63
2023-04-26T11:11:15.561Z,100209.91
2023-04-26T11:13:42.512Z,100210.72
2023-04-26T11:16:09.838Z,100209.94
2023-04-26T11:18:37.064Z,100214.19
2023-04-26T11:21:03.768Z,100211.50
2023-04-26T11:23:30.398Z,100230.88
2023-04-26T11:26:00.347Z,100230.34
2023-04-26T11:28:26.786Z,100234.84
2023-04-26T11:30:53.168Z,100232.19
2023-04-26T11:33:22.137Z,100233.78
2023-04-26T11:35:52.141Z,100230.13
2023-04-26T11:38:18.893Z,100227.94
2023-04-26T11:40:45.510Z,100234.72
2023-04-26T11:43:13.776Z,100220.41
2023-04-26T11:45:40.271Z,100226.69
2023-04-26T11:48:08.737Z,100226.38
2023-04-26T11:50:35.301Z,100234.22
2023-04-26T11:53:02.601Z,100235.59
2023-04-26T11:55:30.496Z,100228.44
2023-04-26T11:57:57.327Z,100234.44
2023-04-26T12:00:25.808Z,100222.78
2023-04-26T12:02:53.266Z,100225.09
2023-04-26T12:05:23.717Z,100232.00
2023-04-26T12:07:51.572Z,100213.41
2023-04-26T12:10:18.543Z,100233.13
2023-04-26T12:12:47.650Z,100238.41
2023-04-26T12:15:15.611Z,100221.50
2023-04-26T12:17:51.646Z,100243.75
2023-04-26T12:20:18.365Z,100249.75
2023-04-26T12:23:03.764Z,100248.34
2023-04-26T12:25:30.382Z,100238.09
2023-04-26T12:27:57.060Z,100239.72
2023-04-26T12:30:23.771Z,100244.13
2023-04-26T12:32:50.223Z,100237.91
2023-04-26T12:35:16.782Z,100255.69
2023-04-26T12:37:43.409Z,100262.88
2023-04-26T12:40:10.524Z,100260.16
2023-04-26T12:42:37.321Z,100265.53
2023-04-26T12:45:04.021Z,100276.94
2023-04-26T12:47:31.372Z,100285.09
2023-04-26T12:50:01.127Z,100279.72
2023-04-26T12:52:28.163Z,100277.75
2023-04-26T12:54:54.515Z,100279.91
2023-04-26T12:57:21.774Z,100268.38
2023-04-26T12:59:50.438Z,100272.34
2023-04-26T13:02:17.175Z,100266.53
2023-04-26T13:04:43.919Z,100268.88
2023-04-26T13:07:10.890Z,100263.81
2023-04-26T13:09:37.264Z,100271.50
2023-04-26T13:12:04.111Z,100270.28
2023-04-26T13:14:30.543Z,100278.09
2023-04-26T13:16:56.960Z,100281.13
2023-04-26T13:19:24.110Z,100269.69
2023-04-26T13:21:52.430Z,100293.22
2023-04-26T13:24:19.688Z,100281.91
2023-04-26T13:26:46.146Z,100305.94
2023-04-26T13:29:12.669Z,100284.75
2023-04-26T13:31:40.024Z,100282.09
2023-04-26T13:34:07.099Z,100294.47
2023-04-26T13:36:33.680Z,100295.22
2023-04-26T13:39:00.183Z,100297.72
2023-04-26T13:41:26.728Z,100308.28
2023-04-26T13:43:53.369Z,100303.06
2023-04-26T13:46:19.820Z,100311.03
2023-04-26T13:48:46.312Z,100311.50
2023-04-26T13:51:12.778Z,100315.06
2023-04-26T13:53:39.297Z,100319.34
2023-04-26T13:56:05.821Z,100314.59
2023-04-26T13:58:32.349Z,100324.41
2023-04-26T14:00:58.696Z,100328.50
2023-04-26T14:03:26.646Z,100332.06
2023-04-26T14:05:53.295Z,100333.00
2023-04-26T14:08:19.658Z,100328.06
2023-04-26T14:10:46.088Z,100332.47
2023-04-26T14:13:12.794Z,100346.38
2023-04-26T14:15:39.153Z,100342.94
2023-04-26T14:18:05.673Z,100349.72
2023-04-26T14:20:33.174Z,100341.50
2023-04-26T14:22:59.570Z,100353.00
2023-04-26T14:25:27.108Z,100362.03
2023-04-26T14:27:53.831Z,100350.28
2023-04-26T14:30:20.899Z,100347.66
2023-04-26T14:32:47.360Z,100337.78
2023-04-26T14:35:13.850Z,100342.53
2023-04-26T14:37:42.888Z,100352.84
2023-04-26T14:40:09.394Z,100353.56
2023-04-26T14:42:36.304Z,100363.28
2023-04-26T14:45:02.694Z,100359.56
2023-04-26T14:47:29.459Z,100355.13
2023-04-26T14:49:56.900Z,100351.69
2023-04-26T14:52:27.012Z,100357.63
2023-04-26T14:54:53.613Z,100358.50
2023-04-26T14:57:19.983Z,100350.66
2023-04-26T14:59:46.422Z,100361.56
2023-04-26T15:02:12.889Z,100368.53
2023-04-26T15:04:39.513Z,100376.28
2023-04-26T15:07:06.566Z,100377.94
2023-04-26T15:09:32.964Z,100382.34
2023-04-26T15:11:59.489Z,100389.78
2023-04-26T15:14:26.080Z,100386.47
2023-04-26T15:16:52.450Z,100385.47
2023-04-26T15:19:19.074Z,100392.09
2023-04-26T15:21:45.449Z,100396.28
2023-04-26T15:24:11.820Z,100397.25
2023-04-26T15:26:38.313Z,100398.88
2023-04-26T15:29:04.827Z,100400.28
2023-04-26T15:31:31.427Z,100400.94
2023-04-26T15:33:58.511Z,100399.00
2023-04-26T15:36:24.898Z,100400.66
2023-04-26T15:38:51.819Z,100398.44
2023-04-26T15:41:18.206Z,100403.06
2023-04-26T15:43:44.575Z,100398.81
2023-04-26T15:46:13.168Z,100395.59
2023-04-26T15:48:41.423Z,100414.91
2023-04-26T15:51:07.779Z,100399.88
2023-04-26T15:53:34.158Z,100415.47
2023-04-26T15:56:01.236Z,100413.78
2023-04-26T15:58:27.581Z,100413.38
2023-04-26T16:00:53.935Z,100421.00
2023-04-26T16:03:20.700Z,100411.50
2023-04-26T16:05:48.006Z,100417.00
2023-04-26T16:08:17.658Z,100420.44
2023-04-26T16:10:50.901Z,100418.81
2023-04-26T16:13:17.526Z,100419.06
2023-04-26T16:15:45.370Z,100423.84
2023-04-26T16:18:11.870Z,100433.78
2023-04-26T16:20:38.251Z,100429.50
2023-04-26T16:23:04.600Z,100432.22
2023-04-26T16:25:31.764Z,100431.28
2023-04-26T16:27:58.209Z,100436.03
2023-04-26T16:30:24.569Z,100445.53
2023-04-26T16:32:51.848Z,100436.41
2023-04-26T16:35:18.283Z,100441.78
2023-04-26T16:37:44.803Z,100446.22
2023-04-26T16:40:11.570Z,100448.28
2023-04-26T16:42:41.960Z,100440.28
2023-04-26T16:45:08.666Z,100446.47
2023-04-26T16:47:35.092Z,100450.19
2023-04-26T16:50:02.144Z,100449.44
2023-04-26T16:52:28.532Z,100452.75
2023-04-26T16:54:54.985Z,100455.66
2023-04-26T16:57:21.346Z,100456.75
2023-04-26T16:59:47.805Z,100464.53
2023-04-26T17:02:14.279Z,100460.47
2023-04-26T17:04:41.305Z,100472.22
2023-04-26T17:07:07.817Z,100470.41
2023-04-26T17:09:34.901Z,100473.03
2023-04-26T17:12:02.855Z,100475.00
2023-04-26T17:14:29.205Z,100475.78
2023-04-26T17:16:55.630Z,100475.75
2023-04-26T17:19:21.981Z,100473.81
2023-04-26T17:21:48.542Z,100477.31
2023-04-26T17:24:14.978Z,100477.28
2023-04-26T17:26:41.874Z,100474.06
2023-04-26T17:29:08.219Z,100478.75
2023-04-26T17:31:34.631Z,100483.03
2023-04-26T17:34:03.290Z,100492.72
2023-04-26T17:36:31.912Z,100496.06
2023-04-26T17:38:58.279Z,100495.44
2023-04-26T17:41:24.641Z,100492.94
2023-04-26T17:43:51.035Z,100497.66
2023-04-26T17:46:17.406Z,100500.47
2023-04-26T17:48:43.799Z,100498.88
2023-04-26T17:51:10.364Z,100497.38
2023-04-26T17:53:36.809Z,100498.25
2023-04-26T17:56:07.161Z,100514.94
2023-04-26T17:58:33.978Z,100507.25
2023-04-26T18:01:00.578Z,100511.66
2023-04-26T18:03:29.608Z,100509.25
2023-04-26T18:05:56.145Z,100508.38
2023-04-26T18:08:22.539Z,100513.03
2023-04-26T18:10:50.413Z,100522.59
2023-04-26T18:13:16.946Z,100517.59
2023-04-26T18:15:43.453Z,100523.09
2023-04-26T18:18:10.132Z,100526.53
2023-04-26T18:20:39.228Z,100530.09
2023-04-26T18:23:05.593Z,100531.16
2023-04-26T18:25:31.938Z,100532.13
2023-04-26T18:27:58.281Z,100536.69
2023-04-26T18:30:24.653Z,100540.19
2023-04-26T18:32:51.471Z,100550.00
2023-04-26T18:35:17.873Z,100539.59
2023-04-26T18:37:44.321Z,100550.03
2023-04-26T18:40:11.809Z,100549.31
2023-04-26T18:42:38.888Z,100545.91
2023-04-26T18:45:06.230Z,100550.41
2023-04-26T18:47:32.650Z,100557.22
2023-04-26T18:49:59.088Z,100552.88
2023-04-26T18:52:25.468Z,100554.78
2023-04-26T18:54:51.799Z,100561.84
2023-04-26T18:57:22.125Z,100561.00
2023-04-26T18:59:51.267Z,100559.16
2023-04-26T19:05:43.095Z,100572.50
2023-04-26T19:17:34.899Z,100559.03
2023-04-26T19:20:01.239Z,100563.50
2023-04-26T19:22:27.619Z,100562.69
2023-04-26T19:24:54.024Z,100561.03
2023-04-26T19:27:20.562Z,100557.69
2023-04-26T19:29:47.011Z,100563.78
2023-04-26T19:32:14.470Z,100562.94
2023-04-26T19:34:41.373Z,100564.44
2023-04-26T19:37:07.977Z,100562.81
2023-04-26T19:39:34.534Z,100570.78
2023-04-26T19:42:01.584Z,100570.84
2023-04-26T19:44:27.988Z,100569.16
2023-04-26T19:46:54.884Z,100570.94
2023-04-26T19:49:21.984Z,100562.38
2023-04-26T19:51:48.625Z,100567.66
2023-04-26T19:54:17.043Z,100567.84
2023-04-26T19:56:43.506Z,100563.53
2023-04-26T19:59:35.331Z,100564.56
2023-04-26T20:02:03.104Z,100562.84
2023-04-26T20:04:29.600Z,100567.19
2023-04-26T20:06:57.340Z,100566.44
2023-04-26T20:09:23.714Z,100569.81
2023-04-26T20:11:50.109Z,100570.78
2023-04-26T20:14:16.575Z,100571.75
2023-04-26T20:16:43.032Z,100571.75
2023-04-26T20:19:10.253Z,100573.47
2023-04-26T20:21:37.128Z,100576.97
2023-04-26T20:24:04.133Z,100576.97
2023-04-26T20:26:30.589Z,100572.66
2023-04-26T20:28:57.412Z,100571.84
2023-04-26T20:31:24.271Z,100571.94
2023-04-26T20:33:50.723Z,100571.09
2023-04-26T20:36:17.733Z,100569.34
2023-04-26T20:38:44.174Z,100570.22
2023-04-26T20:41:10.941Z,100574.53
2023-04-26T20:43:37.332Z,100569.34
2023-04-26T20:46:05.319Z,100571.97
2023-04-26T20:48:31.688Z,100576.22
2023-04-26T20:50:58.766Z,100575.47
2023-04-26T20:53:25.162Z,100575.47
2023-04-26T20:56:16.579Z,100576.41
2023-04-26T20:58:42.966Z,100574.00
2023-04-26T21:01:09.791Z,100572.31
2023-04-26T21:03:36.491Z,100573.16
2023-04-26T21:06:02.999Z,100573.28
2023-04-26T21:08:29.429Z,100566.34
2023-04-26T21:10:55.957Z,100573.38
2023-04-26T21:13:23.722Z,100571.75
2023-04-26T21:15:50.226Z,100572.53
2023-04-26T21:18:16.712Z,100572.59
2023-04-26T21:20:43.183Z,100583.03
2023-04-26T21:23:09.700Z,100581.31
2023-04-26T21:25:36.859Z,100584.78
2023-04-26T21:28:03.345Z,100587.41
2023-04-26T21:30:29.873Z,100586.59
2023-04-26T21:32:56.419Z,100584.81
2023-04-26T21:35:22.970Z,100592.66
2023-04-26T21:37:49.410Z,100593.63
2023-04-26T21:40:15.939Z,100590.16
2023-04-26T21:42:46.596Z,100598.81
2023-04-26T21:45:17.956Z,100597.13
2023-04-26T21:47:44.403Z,100597.22
2023-04-26T21:50:10.958Z,100600.66
2023-04-26T21:52:37.477Z,100601.53
2023-04-26T21:55:04.230Z,100597.22
2023-04-26T21:57:30.828Z,100607.63
2023-04-26T21:59:57.319Z,100606.78
2023-04-26T22:02:24.374Z,100612.03
2023-04-26T22:04:50.976Z,100607.78
2023-04-26T22:07:17.501Z,100607.88
2023-04-26T22:09:43.928Z,100613.91
2023-04-26T22:12:10.448Z,100613.97
2023-04-26T22:14:36.972Z,100619.16
2023-04-26T22:17:03.787Z,100619.19
2023-04-26T22:19:30.760Z,100616.66
2023-04-26T22:21:57.288Z,100622.72
2023-04-26T22:24:23.819Z,100624.53
2023-04-26T22:26:50.234Z,100627.13
2023-04-26T22:29:16.708Z,100628.81
2023-04-26T22:31:43.198Z,100628.88
2023-04-26T22:34:09.737Z,100622.81
2023-04-26T22:36:36.308Z,100635.78
2023-04-26T22:39:02.759Z,100628.00
2023-04-26T22:41:29.192Z,100629.81
2023-04-26T22:43:55.747Z,100633.22
2023-04-26T22:46:22.242Z,100625.44
2023-04-26T22:48:48.669Z,100635.03
2023-04-26T22:51:15.390Z,100635.00
2023-04-26T22:53:41.812Z,100628.97
2023-04-26T22:56:08.390Z,100632.44
2023-04-26T22:58:34.820Z,100641.97
2023-04-26T23:01:01.298Z,100642.81
2023-04-26T23:03:27.919Z,100643.63
2023-04-26T23:05:54.640Z,100646.28
2023-04-26T23:08:21.412Z,100642.03
2023-04-26T23:10:47.859Z,100643.88
2023-04-26T23:13:14.714Z,100644.69
2023-04-26T23:15:42.015Z,100643.03
2023-04-26T23:18:08.472Z,100641.38
2023-04-26T23:20:34.959Z,100652.69
2023-04-26T23:23:01.616Z,100649.19
2023-04-26T23:25:28.041Z,100637.94
2023-04-26T23:27:54.572Z,100641.41
2023-04-26T23:30:21.239Z,100647.47
2023-04-26T23:32:47.821Z,100648.31
2023-04-26T23:35:14.333Z,100643.13
2023-04-26T23:37:40.981Z,100648.34
2023-04-26T23:40:09.375Z,100645.72
2023-04-26T23:42:36.683Z,100645.72
2023-04-26T23:45:03.837Z,100645.75
2023-04-26T23:47:30.968Z,100648.34
2023-04-26T23:49:57.499Z,100650.94
2023-04-26T23:52:23.924Z,100644.06
2023-04-26T23:54:50.484Z,100647.47
2023-04-26T23:57:16.924Z,100653.59
2023-04-26T23:59:43.337Z,100646.66
